createdAt,value
2022-11-02T00:01:43.198Z,100879.00
2022-11-02T00:04:16.241Z,100862.00
2022-11-02T00:06:49.234Z,100868.00
2022-11-02T00:09:22.197Z,100866.00
2022-11-02T00:11:55.167Z,100879.00
2022-11-02T00:14:28.050Z,100881.00
2022-11-02T00:17:01.530Z,100866.00
2022-11-02T00:19:34.683Z,100861.00
2022-11-02T00:22:08.290Z,100867.00
2022-11-02T00:24:41.317Z,100864.00
2022-11-02T00:27:14.964Z,100846.00
2022-11-02T00:29:48.110Z,100851.00
2022-11-02T00:32:21.582Z,100850.00
2022-11-02T00:34:55.138Z,100855.00
2022-11-02T00:37:29.293Z,100847.00
2022-11-02T00:40:02.446Z,100855.00
2022-11-02T00:42:38.436Z,100847.00
2022-11-02T00:45:13.186Z,100857.00
2022-11-02T00:47:46.198Z,100845.00
2022-11-02T00:50:19.242Z,100852.00
2022-11-02T00:52:52.207Z,100847.00
2022-11-02T00:55:25.586Z,100864.00
2022-11-02T00:57:58.565Z,100857.00
2022-11-02T01:00:36.238Z,100866.00
2022-11-02T01:03:09.378Z,100868.00
2022-11-02T01:05:42.873Z,100873.00
2022-11-02T01:08:15.951Z,100878.00
2022-11-02T01:10:48.927Z,100876.00
2022-11-02T01:13:21.843Z,100875.00
2022-11-02T01:15:55.234Z,100885.00
2022-11-02T01:18:28.196Z,100876.00
2022-11-02T01:21:04.070Z,100874.00
2022-11-02T01:23:38.800Z,100882.00
2022-11-02T01:26:15.228Z,100872.00
2022-11-02T01:28:48.462Z,100881.00
2022-11-02T01:31:23.121Z,100868.00
2022-11-02T01:33:56.038Z,100866.00
2022-11-02T01:36:29.024Z,100869.00
2022-11-02T01:39:02.758Z,100858.00
2022-11-02T01:41:36.256Z,100859.00
2022-11-02T01:44:11.264Z,100848.00
2022-11-02T01:46:45.782Z,100846.00
2022-11-02T01:49:20.459Z,100860.00
2022-11-02T01:52:10.470Z,100853.00
2022-11-02T01:54:45.219Z,100844.00
2022-11-02T01:57:23.115Z,100839.00
2022-11-02T02:00:10.034Z,100852.00
2022-11-02T02:02:47.435Z,100844.00
2022-11-02T02:05:21.774Z,100846.00
2022-11-02T02:07:55.732Z,100839.00
2022-11-02T02:10:28.593Z,100846.00
2022-11-02T02:13:01.624Z,100839.00
2022-11-02T02:15:48.272Z,100834.00
2022-11-02T02:18:25.917Z,100833.00
2022-11-02T02:21:09.905Z,100829.00
2022-11-02T02:23:47.834Z,100833.00
2022-11-02T02:26:25.674Z,100834.00
2022-11-02T02:29:15.510Z,100833.00
2022-11-02T02:31:53.593Z,100835.00
2022-11-02T02:34:30.336Z,100839.00
2022-11-02T02:37:05.199Z,100824.00
2022-11-02T02:39:54.743Z,100817.00
2022-11-02T02:42:29.490Z,100818.00
2022-11-02T02:45:29.809Z,100824.00
2022-11-02T02:48:05.274Z,100819.00
2022-11-02T02:50:40.100Z,100823.00
2022-11-02T02:53:18.349Z,100810.00
2022-11-02T02:55:59.332Z,100817.00
2022-11-02T02:58:35.882Z,100811.00
2022-11-02T03:01:11.263Z,100807.00
2022-11-02T03:03:45.978Z,100812.00
2022-11-02T03:06:24.179Z,100806.00
2022-11-02T03:09:07.958Z,100813.00
2022-11-02T03:11:42.773Z,100811.00
2022-11-02T03:14:23.933Z,100808.00
2022-11-02T03:17:19.713Z,100799.00
2022-11-02T03:19:57.658Z,100802.00
2022-11-02T03:22:47.756Z,100806.00
2022-11-02T03:25:31.677Z,100785.00
2022-11-02T03:28:09.614Z,100775.00
2022-11-02T03:30:44.250Z,100780.00
2022-11-02T03:33:27.724Z,100781.00
2022-11-02T03:36:14.938Z,100791.00
2022-11-02T03:38:52.294Z,100775.00
2022-11-02T03:41:25.781Z,100769.00
2022-11-02T03:44:00.374Z,100774.00
2022-11-02T03:46:34.250Z,100769.00
2022-11-02T03:49:09.546Z,100776.00
2022-11-02T03:51:44.550Z,100774.00
2022-11-02T03:54:25.635Z,100762.00
2022-11-02T03:57:00.696Z,100767.00
2022-11-02T03:59:34.891Z,100757.00
2022-11-02T04:02:07.966Z,100758.00
2022-11-02T04:04:42.973Z,100762.00
2022-11-02T04:07:16.399Z,100753.00
2022-11-02T04:09:55.810Z,100763.00
2022-11-02T04:12:48.724Z,100760.00
2022-11-02T04:15:21.987Z,100764.00
2022-11-02T04:18:12.202Z,100754.00
2022-11-02T04:20:51.345Z,100749.00
2022-11-02T04:23:41.801Z,100763.00
2022-11-02T04:26:14.689Z,100756.00
2022-11-02T04:28:49.720Z,100758.00
2022-11-02T04:31:21.869Z,100749.00
2022-11-02T04:33:54.909Z,100749.00
2022-11-02T04:36:31.385Z,100749.00
2022-11-02T04:39:07.021Z,100749.00
2022-11-02T04:41:47.150Z,100760.00
2022-11-02T04:44:23.657Z,100751.00
2022-11-02T04:46:55.880Z,100755.00
2022-11-02T04:49:28.943Z,100750.00
2022-11-02T04:52:01.903Z,100765.00
2022-11-02T04:54:34.950Z,100769.00
2022-11-02T04:57:08.200Z,100772.00
2022-11-02T04:59:41.652Z,100766.00
2022-11-02T05:02:14.684Z,100782.00
2022-11-02T05:04:50.000Z,100777.00
2022-11-02T05:07:23.725Z,100764.00
2022-11-02T05:09:57.222Z,100757.00
2022-11-02T05:12:30.218Z,100760.00
2022-11-02T05:15:04.500Z,100770.00
2022-11-02T05:17:39.785Z,100765.00
2022-11-02T05:20:33.515Z,100772.00
2022-11-02T05:23:03.067Z,100765.00
2022-11-02T05:25:36.648Z,100768.00
2022-11-02T05:28:10.287Z,100775.00
2022-11-02T05:30:49.872Z,100775.00
2022-11-02T05:33:27.936Z,100767.00
2022-11-02T05:36:01.592Z,100772.00
2022-11-02T05:38:37.061Z,100784.00
2022-11-02T05:41:10.213Z,100778.00
2022-11-02T05:43:46.342Z,100773.00
2022-11-02T05:46:23.102Z,100783.00
2022-11-02T05:48:56.302Z,100776.00
2022-11-02T05:51:29.252Z,100774.00
2022-11-02T05:54:03.833Z,100774.00
2022-11-02T05:56:37.324Z,100777.00
2022-11-02T05:59:10.658Z,100784.00
2022-11-02T06:01:47.004Z,100789.00
2022-11-02T06:04:30.142Z,100796.00
2022-11-02T06:07:09.977Z,100795.00
2022-11-02T06:09:44.459Z,100803.00
2022-11-02T06:12:23.654Z,100806.00
2022-11-02T06:15:04.225Z,100811.00
2022-11-02T06:17:44.009Z,100810.00
2022-11-02T06:20:21.097Z,100820.00
2022-11-02T06:22:54.558Z,100820.00
2022-11-02T06:25:29.434Z,100821.00
2022-11-02T06:28:02.734Z,100827.00
2022-11-02T06:30:37.417Z,100820.00
2022-11-02T06:33:14.116Z,100818.00
2022-11-02T06:35:51.900Z,100800.00
2022-11-02T06:38:29.549Z,100802.00
2022-11-02T06:41:08.076Z,100814.00
2022-11-02T06:43:50.989Z,100803.00
2022-11-02T06:46:24.248Z,100809.00
2022-11-02T06:49:02.002Z,100816.00
2022-11-02T06:51:36.878Z,100809.00
2022-11-02T06:54:10.288Z,100793.00
2022-11-02T06:56:43.333Z,100792.00
2022-11-02T06:59:17.061Z,100791.00
2022-11-02T07:01:51.405Z,100793.00
2022-11-02T07:04:24.543Z,100789.00
2022-11-02T07:06:57.603Z,100793.00
2022-11-02T07:09:30.773Z,100797.00
2022-11-02T07:12:09.893Z,100791.00
2022-11-02T07:14:44.161Z,100781.00
2022-11-02T07:17:17.119Z,100777.00
2022-11-02T07:19:50.067Z,100776.00
2022-11-02T07:22:26.030Z,100767.00
2022-11-02T07:24:59.573Z,100766.00
2022-11-02T07:27:32.836Z,100756.00
2022-11-02T07:30:05.981Z,100754.00
2022-11-02T07:32:43.188Z,100764.00
2022-11-02T07:35:19.391Z,100775.00
2022-11-02T07:38:02.187Z,100762.00
2022-11-02T07:40:42.359Z,100768.00
2022-11-02T07:43:15.793Z,100766.00
2022-11-02T07:48:46.223Z,100768.00
2022-11-02T07:51:18.999Z,100773.00
2022-11-02T07:53:53.898Z,100765.00
2022-11-02T07:56:36.820Z,100778.00
2022-11-02T07:59:10.236Z,100788.00
2022-11-02T08:04:33.870Z,100787.00
2022-11-02T08:07:07.022Z,100786.00
2022-11-02T08:09:44.789Z,100784.00
2022-11-02T08:12:18.145Z,100786.00
2022-11-02T08:20:56.355Z,100779.00
2022-11-02T08:30:57.562Z,100797.00
2022-11-02T08:40:06.639Z,100802.00
2022-11-02T08:52:17.935Z,100793.00
2022-11-02T08:54:50.773Z,100781.00
2022-11-02T08:57:25.048Z,100780.00
2022-11-02T09:00:11.074Z,100781.00
2022-11-02T09:06:18.197Z,100782.00
2022-11-02T09:09:03.912Z,100784.00
2022-11-02T09:14:50.907Z,100788.00
2022-11-02T09:26:29.392Z,100786.00
2022-11-02T09:29:15.327Z,100797.00
2022-11-02T09:31:54.739Z,100794.00
2022-11-02T09:34:50.610Z,100791.00
2022-11-02T09:37:19.694Z,100787.00
2022-11-02T09:40:06.646Z,100783.00
2022-11-02T09:42:57.782Z,100795.00
2022-11-02T09:45:43.420Z,100801.00
2022-11-02T09:48:28.165Z,100806.00
2022-11-02T09:51:19.335Z,100801.00
2022-11-02T09:54:01.564Z,100797.00
2022-11-02T09:56:36.024Z,100796.00
2022-11-02T09:59:11.095Z,100778.00
2022-11-02T10:02:05.884Z,100778.00
2022-11-02T10:04:52.733Z,100773.00
2022-11-02T10:07:47.265Z,100770.00
2022-11-02T10:10:22.299Z,100781.00
2022-11-02T10:13:22.038Z,100772.00
2022-11-02T10:16:08.659Z,100774.00
2022-11-02T10:18:51.138Z,100764.00
2022-11-02T10:21:43.890Z,100762.00
2022-11-02T10:24:43.911Z,100758.00
2022-11-02T10:27:33.600Z,100756.00
2022-11-02T10:30:20.278Z,100767.00
2022-11-02T10:33:11.770Z,100761.00
2022-11-02T10:51:50.529Z,100755.00
2022-11-02T10:54:56.874Z,100757.00
2022-11-02T10:57:37.996Z,100749.00
2022-11-02T11:01:08.677Z,100753.00
2022-11-02T11:03:38.923Z,100743.00
2022-11-02T11:06:16.859Z,100752.00
2022-11-02T11:08:55.558Z,100754.00
2022-11-02T11:11:37.289Z,100738.00
2022-11-02T11:19:59.371Z,100744.00
2022-11-02T11:22:48.776Z,100757.00
2022-11-02T11:26:03.539Z,100753.00
2022-11-02T11:28:53.990Z,100745.00
2022-11-02T11:31:26.124Z,100748.00
2022-11-02T11:34:03.934Z,100744.00
2022-11-02T11:36:42.950Z,100742.00
2022-11-02T11:39:36.752Z,100741.00
2022-11-02T11:42:17.116Z,100750.00
2022-11-02T11:48:20.506Z,100763.00
2022-11-02T11:51:25.713Z,100762.00
2022-11-02T11:53:43.969Z,100762.00
2022-11-02T11:56:19.189Z,100744.00
2022-11-02T11:58:54.363Z,100742.00
2022-11-02T12:01:27.810Z,100731.00
2022-11-02T12:04:18.491Z,100733.00
2022-11-02T12:07:10.329Z,100735.00
2022-11-02T12:10:02.073Z,100729.00
2022-11-02T12:12:37.174Z,100723.00
2022-11-02T12:15:39.323Z,100727.00
2022-11-02T12:18:28.909Z,100712.00
2022-11-02T12:21:29.440Z,100715.00
2022-11-02T12:24:13.424Z,100711.00
2022-11-02T12:27:23.797Z,100707.00
2022-11-02T12:30:23.169Z,100711.00
2022-11-02T12:33:32.923Z,100725.00
2022-11-02T12:36:23.580Z,100723.00
2022-11-02T12:39:02.220Z,100716.00
2022-11-02T12:41:55.765Z,100724.00
2022-11-02T12:44:48.242Z,100735.00
2022-11-02T12:47:29.622Z,100728.00
2022-11-02T12:50:36.395Z,100731.00
2022-11-02T12:53:15.033Z,100737.00
2022-11-02T12:55:55.201Z,100740.00
2022-11-02T12:58:29.540Z,100721.00
2022-11-02T13:01:19.092Z,100713.00
2022-11-02T13:04:06.794Z,100714.00
2022-11-02T13:06:44.996Z,100711.00
2022-11-02T13:09:39.421Z,100717.00
2022-11-02T13:12:20.726Z,100727.00
2022-11-02T13:15:11.989Z,100714.00
2022-11-02T13:17:46.863Z,100716.00
2022-11-02T13:20:35.247Z,100714.00
2022-11-02T13:23:10.859Z,100705.00
2022-11-02T13:25:53.539Z,100701.00
2022-11-02T13:28:52.916Z,100691.00
2022-11-02T13:31:31.399Z,100681.00
2022-11-02T13:34:10.423Z,100685.00
2022-11-02T13:36:44.098Z,100679.00
2022-11-02T13:39:40.750Z,100672.00
2022-11-02T13:51:55.532Z,100660.00
2022-11-02T13:54:37.696Z,100655.00
2022-11-02T13:57:31.385Z,100638.00
2022-11-02T14:03:02.492Z,100641.00
2022-11-02T14:14:52.135Z,100634.00
2022-11-02T14:20:28.060Z,100629.00
2022-11-02T14:26:19.505Z,100611.00
2022-11-02T14:34:37.746Z,100615.00
2022-11-02T14:37:33.195Z,100609.00
2022-11-02T14:50:06.618Z,100590.00
2022-11-02T14:52:44.161Z,100580.00
2022-11-02T15:01:24.632Z,100591.00
2022-11-02T15:07:00.669Z,100611.00
2022-11-02T15:10:28.082Z,100581.00
2022-11-02T15:19:41.630Z,100598.00
2022-11-02T15:22:40.518Z,100592.00
2022-11-02T15:43:37.339Z,100614.00
2022-11-02T15:46:30.690Z,100604.00
2022-11-02T15:49:06.803Z,100618.00
2022-11-02T15:51:58.646Z,100616.00
2022-11-02T15:54:51.508Z,100609.00
2022-11-02T15:57:52.934Z,100607.00
2022-11-02T16:00:31.147Z,100596.00
2022-11-02T16:03:11.788Z,100587.00
2022-11-02T16:05:58.302Z,100590.00
2022-11-02T16:08:47.105Z,100583.00
2022-11-02T16:11:23.537Z,100582.00
2022-11-02T16:14:08.683Z,100574.00
2022-11-02T16:16:37.111Z,100571.00
2022-11-02T16:19:11.285Z,100568.00
2022-11-02T16:21:44.224Z,100551.00
2022-11-02T16:24:17.454Z,100551.00
2022-11-02T16:26:51.924Z,100546.00
2022-11-02T16:29:28.773Z,100544.00
2022-11-02T16:32:01.160Z,100561.00
2022-11-02T16:34:43.285Z,100557.00
2022-11-02T16:37:25.383Z,100562.00
2022-11-02T16:42:55.748Z,100570.00
2022-11-02T16:45:43.599Z,100561.00
2022-11-02T16:48:33.382Z,100547.00
2022-11-02T16:51:22.969Z,100553.00
2022-11-02T16:53:56.925Z,100546.00
2022-11-02T16:56:34.978Z,100545.00
2022-11-02T16:59:12.285Z,100561.00
2022-11-02T17:01:46.588Z,100546.00
2022-11-02T17:04:41.198Z,100553.00
2022-11-02T17:07:21.987Z,100557.00
2022-11-02T17:10:02.221Z,100556.00
2022-11-02T17:12:40.544Z,100564.00
2022-11-02T17:15:23.950Z,100559.00
2022-11-02T17:21:30.153Z,100592.00
2022-11-02T17:24:10.676Z,100590.00
2022-11-02T17:26:50.893Z,100586.00
2022-11-02T17:29:34.405Z,100603.00
2022-11-02T17:32:08.466Z,100610.00
2022-11-02T17:35:21.856Z,100616.00
2022-11-02T17:37:35.942Z,100606.00
2022-11-02T17:40:10.312Z,100598.00
2022-11-02T17:43:04.353Z,100586.00
2022-11-02T17:45:39.471Z,100599.00
2022-11-02T17:48:13.965Z,100603.00
2022-11-02T17:51:05.517Z,100611.00
2022-11-02T17:53:40.649Z,100612.00
2022-11-02T17:56:14.660Z,100610.00
2022-11-02T17:58:52.796Z,100612.00
2022-11-02T18:01:24.846Z,100628.00
2022-11-02T18:03:57.868Z,100622.00
2022-11-02T18:06:31.839Z,100636.00
2022-11-02T18:12:29.322Z,100644.00
2022-11-02T18:15:20.236Z,100639.00
2022-11-02T18:17:53.522Z,100641.00
2022-11-02T18:20:26.910Z,100642.00
2022-11-02T18:23:02.474Z,100638.00
2022-11-02T18:25:45.067Z,100636.00
2022-11-02T18:28:17.994Z,100645.00
2022-11-02T18:30:51.344Z,100637.00
2022-11-02T18:33:26.838Z,100646.00
2022-11-02T18:36:20.411Z,100646.00
2022-11-02T18:39:08.245Z,100635.00
2022-11-02T18:42:09.755Z,100634.00
2022-11-02T18:44:29.128Z,100638.00
2022-11-02T18:47:01.835Z,100619.00
2022-11-02T18:49:34.813Z,100619.00
2022-11-02T18:52:12.683Z,100628.00
2022-11-02T18:54:59.530Z,100629.00
2022-11-02T18:57:27.913Z,100615.00
2022-11-02T18:59:58.150Z,100636.00
2022-11-02T19:02:32.523Z,100639.00
2022-11-02T19:05:05.817Z,100626.00
2022-11-02T19:08:02.205Z,100629.00
2022-11-02T19:13:45.301Z,100647.00
2022-11-02T19:16:42.591Z,100656.00
2022-11-02T19:19:07.976Z,100657.00
2022-11-02T19:21:41.634Z,100647.00
2022-11-02T19:24:14.803Z,100644.00
2022-11-02T19:26:47.773Z,100655.00
2022-11-02T19:29:20.696Z,100652.00
2022-11-02T19:31:53.851Z,100649.00
2022-11-02T19:34:28.958Z,100650.00
2022-11-02T19:37:07.378Z,100645.00
2022-11-02T19:39:40.824Z,100642.00
2022-11-02T19:42:17.835Z,100656.00
2022-11-02T19:44:53.376Z,100666.00
2022-11-02T19:47:27.345Z,100668.00
2022-11-02T19:50:00.553Z,100679.00
2022-11-02T19:52:33.867Z,100674.00
2022-11-02T19:55:06.760Z,100645.00
2022-11-02T20:01:22.981Z,100662.00
2022-11-02T20:17:31.825Z,100685.00
2022-11-02T20:26:16.078Z,100671.00
2022-11-02T20:31:52.872Z,100648.00
2022-11-02T20:38:07.176Z,100659.00
2022-11-02T20:40:47.975Z,100660.00
2022-11-02T20:43:33.420Z,100655.00
2022-11-02T20:46:36.426Z,100671.00
2022-11-02T20:49:14.396Z,100669.00
2022-11-02T21:01:05.798Z,100664.00
2022-11-02T21:06:37.809Z,100662.00
2022-11-02T21:09:33.208Z,100667.00
2022-11-02T21:14:57.913Z,100678.00
2022-11-02T21:17:37.349Z,100664.00
2022-11-02T21:23:05.610Z,100656.00
2022-11-02T21:25:40.333Z,100676.00
2022-11-02T21:28:13.442Z,100677.00
2022-11-02T21:30:54.390Z,100674.00
2022-11-02T21:33:28.765Z,100657.00
2022-11-02T21:36:04.702Z,100656.00
2022-11-02T21:38:42.001Z,100670.00
2022-11-02T21:41:16.091Z,100665.00
2022-11-02T21:44:08.761Z,100673.00
2022-11-02T21:46:45.329Z,100662.00
2022-11-02T21:49:17.510Z,100679.00
2022-11-02T21:51:50.759Z,100688.00
2022-11-02T21:54:29.620Z,100666.00
2022-11-02T21:57:11.080Z,100675.00
2022-11-02T21:59:49.127Z,100666.00
2022-11-02T22:02:33.404Z,100671.00
2022-11-02T22:05:06.591Z,100670.00
2022-11-02T22:07:46.700Z,100671.00
2022-11-02T22:10:18.189Z,100673.00
2022-11-02T22:13:32.649Z,100661.00
2022-11-02T22:16:19.402Z,100681.00
2022-11-02T22:18:59.900Z,100669.00
2022-11-02T22:21:34.430Z,100671.00
2022-11-02T22:24:10.263Z,100673.00
2022-11-02T22:26:44.233Z,100686.00
2022-11-02T22:29:20.393Z,100681.00
2022-11-02T22:31:53.508Z,100686.00
2022-11-02T22:34:26.548Z,100693.00
2022-11-02T22:37:07.425Z,100678.00
2022-11-02T22:39:39.975Z,100676.00
2022-11-02T22:45:06.166Z,100677.00
2022-11-02T22:47:39.247Z,100676.00
2022-11-02T22:50:26.733Z,100689.00
2022-11-02T22:56:45.611Z,100697.00
2022-11-02T22:59:24.772Z,100683.00
2022-11-02T23:11:06.493Z,100689.00
2022-11-02T23:13:41.971Z,100690.00
2022-11-02T23:17:08.171Z,100673.00
2022-11-02T23:19:41.284Z,100664.00
2022-11-02T23:25:27.320Z,100677.00
2022-11-02T23:31:14.214Z,100679.00
2022-11-02T23:34:08.370Z,100670.00
2022-11-02T23:36:40.493Z,100676.00
2022-11-02T23:39:31.433Z,100671.00
2022-11-02T23:42:15.510Z,100680.00
2022-11-02T23:44:47.975Z,100679.00
2022-11-02T23:47:25.206Z,100669.00
2022-11-02T23:50:02.349Z,100680.00
2022-11-02T23:52:52.725Z,100663.00
2022-11-02T23:55:43.079Z,100660.00
2022-11-02T23:58:16.383Z,100667.00
